createdAt,value
2022-09-20T02:13:26.928Z,20.03
2022-09-20T02:16:32.768Z,20.06
2022-09-20T02:19:25.590Z,20.05
2022-09-20T02:22:24.366Z,19.97
2022-09-20T02:29:25.145Z,19.94
2022-09-20T02:34:51.208Z,19.95
2022-09-20T02:41:31.463Z,19.96
2022-09-20T02:47:31.665Z,19.89
2022-09-20T02:50:33.094Z,19.78
2022-09-20T02:53:22.772Z,19.65
2022-09-20T02:56:33.286Z,19.61
2022-09-20T02:59:22.407Z,19.56
2022-09-20T03:02:34.416Z,19.47
2022-09-20T03:09:25.639Z,19.30
2022-09-20T03:12:30.732Z,19.22
2022-09-20T03:18:54.041Z,19.16
2022-09-20T03:25:52.704Z,19.05
2022-09-20T03:28:26.675Z,19.01
2022-09-20T03:36:51.500Z,18.87
2022-09-20T03:40:22.328Z,18.85
2022-09-20T03:43:33.421Z,18.76
2022-09-20T03:46:25.066Z,18.74
2022-09-20T03:49:35.104Z,18.69
2022-09-20T03:52:32.884Z,18.63
2022-09-20T03:55:31.800Z,18.60
2022-09-20T03:59:02.605Z,18.61
2022-09-20T04:01:30.932Z,18.56
2022-09-20T04:04:49.856Z,18.66
2022-09-20T04:10:49.571Z,18.62
2022-09-20T04:16:49.533Z,18.53
2022-09-20T04:23:49.370Z,18.50
2022-09-20T04:26:54.696Z,18.47
2022-09-20T04:33:48.818Z,18.56
2022-09-20T04:36:48.768Z,18.57
2022-09-20T04:43:14.370Z,18.52
2022-09-20T04:46:47.774Z,18.59
2022-09-20T04:50:02.284Z,18.65
2022-09-20T04:52:50.438Z,18.69
2022-09-20T04:55:57.909Z,18.70
2022-09-20T04:58:59.945Z,18.66
2022-09-20T05:02:17.562Z,18.61
2022-09-20T05:05:46.960Z,18.58
2022-09-20T05:08:56.694Z,18.52
2022-09-20T05:12:35.794Z,18.43
2022-09-20T05:15:53.751Z,18.35
2022-09-20T05:18:46.485Z,18.37
2022-09-20T05:21:51.509Z,18.41
2022-09-20T05:25:45.157Z,18.40
2022-09-20T05:31:44.372Z,18.37
2022-09-20T05:34:27.560Z,18.42
2022-09-20T05:37:19.649Z,18.42
2022-09-20T05:39:58.286Z,18.42
2022-09-20T05:42:45.090Z,18.44
2022-09-20T05:45:22.402Z,18.46
2022-09-20T05:49:14.138Z,18.46
2022-09-20T05:51:57.756Z,18.46
2022-09-20T05:55:15.055Z,18.46
2022-09-20T06:09:13.643Z,18.30
2022-09-20T06:12:14.853Z,18.28
2022-09-20T06:15:13.400Z,18.29
2022-09-20T06:18:12.427Z,18.21
2022-09-20T06:21:19.938Z,18.12
2022-09-20T06:32:12.625Z,17.89
2022-09-20T06:38:40.368Z,17.84
2022-09-20T06:41:40.141Z,17.83
2022-09-20T06:44:11.404Z,17.86
2022-09-20T06:56:09.535Z,17.72
2022-09-20T06:58:40.786Z,17.70
2022-09-20T07:03:43.152Z,17.69
2022-09-20T07:06:12.154Z,17.68
2022-09-20T07:08:40.444Z,17.74
2022-09-20T07:11:16.669Z,17.76
2022-09-20T07:16:39.638Z,17.67
2022-09-20T07:19:17.464Z,17.65
2022-09-20T07:24:27.232Z,17.54
2022-09-20T07:27:16.217Z,17.58
2022-09-20T07:29:44.594Z,17.54
2022-09-20T07:32:13.014Z,17.60
2022-09-20T07:34:41.473Z,17.73
2022-09-20T07:37:09.915Z,17.76
2022-09-20T07:39:40.787Z,17.79
2022-09-20T07:42:09.178Z,17.74
2022-09-20T07:44:38.070Z,17.65
2022-09-20T07:47:15.094Z,17.53
2022-09-20T07:49:43.448Z,17.41
2022-09-20T07:58:40.278Z,17.33
2022-09-20T08:01:13.664Z,17.30
2022-09-20T08:06:38.781Z,17.30
2022-09-20T08:09:39.063Z,17.52
2022-09-20T08:15:35.264Z,17.94
2022-09-20T08:18:36.884Z,17.96
2022-09-20T08:21:40.632Z,17.84
2022-09-20T08:24:41.095Z,17.67
2022-09-20T08:27:36.989Z,17.64
2022-09-20T08:34:07.425Z,17.88
2022-09-20T08:36:37.851Z,17.74
2022-09-20T08:42:42.149Z,17.47
2022-09-20T08:45:35.584Z,17.36
2022-09-20T08:48:33.420Z,17.29
2022-09-20T08:51:36.814Z,17.22
2022-09-20T08:54:34.982Z,17.14
2022-09-20T08:57:35.145Z,17.08
2022-09-20T09:03:33.019Z,17.00
2022-09-20T09:06:07.529Z,16.95
2022-09-20T09:09:37.451Z,16.92
2022-09-20T09:15:03.661Z,16.91
2022-09-20T09:17:32.442Z,17.01
2022-09-20T09:20:41.013Z,17.13
2022-09-20T09:23:36.908Z,17.21
2022-09-20T09:29:08.123Z,17.10
2022-09-20T09:31:36.722Z,16.97
2022-09-20T09:34:05.125Z,16.87
2022-09-20T09:36:33.800Z,16.79
2022-09-20T09:39:34.301Z,16.70
2022-09-20T09:42:32.250Z,16.60
2022-09-20T09:45:39.534Z,16.53
2022-09-20T09:48:34.356Z,16.46
2022-09-20T09:51:18.492Z,16.42
2022-09-20T09:54:00.736Z,16.42
2022-09-20T09:56:59.397Z,16.50
2022-09-20T10:04:02.942Z,16.53
2022-09-20T10:06:59.982Z,16.49
2022-09-20T10:13:19.870Z,16.35
2022-09-20T10:20:42.053Z,16.38
2022-09-20T10:24:04.036Z,16.43
2022-09-20T10:30:26.848Z,16.34
2022-09-20T10:33:26.980Z,16.39
2022-09-20T10:36:55.332Z,16.47
2022-09-20T10:40:02.762Z,16.57
2022-09-20T10:43:09.030Z,16.76
2022-09-20T10:46:28.010Z,16.71
2022-09-20T10:49:55.075Z,16.62
2022-09-20T10:53:00.634Z,16.65
2022-09-20T10:55:56.044Z,16.59
2022-09-20T10:59:01.147Z,16.58
2022-09-20T11:02:07.661Z,16.64
2022-09-20T11:04:53.429Z,16.79
2022-09-20T11:07:54.634Z,16.98
2022-09-20T11:10:55.212Z,17.01
2022-09-20T11:13:53.741Z,16.90
2022-09-20T11:16:57.236Z,16.90
2022-09-20T11:20:24.881Z,16.74
2022-09-20T11:23:26.178Z,16.55
2022-09-20T11:26:28.194Z,16.41
2022-09-20T11:33:53.218Z,16.15
2022-09-20T11:40:29.906Z,16.01
2022-09-20T11:43:24.966Z,15.97
2022-09-20T11:56:10.247Z,15.97
2022-09-20T11:59:33.958Z,15.95
2022-09-20T12:07:09.790Z,16.07
2022-09-20T12:15:25.804Z,16.12
2022-09-20T12:18:22.495Z,16.11
2022-09-20T12:28:18.601Z,16.06
2022-09-20T12:31:22.320Z,16.00
2022-09-20T12:34:24.454Z,16.00
2022-09-20T12:40:20.509Z,15.95
2022-09-20T12:43:20.473Z,15.95
2022-09-20T12:46:18.869Z,15.93
2022-09-20T12:52:50.153Z,15.90
2022-09-20T12:55:50.688Z,15.88
2022-09-20T12:58:23.902Z,15.85
2022-09-20T13:01:19.235Z,15.84
2022-09-20T13:04:21.436Z,15.81
2022-09-20T13:06:47.268Z,15.77
2022-09-20T13:09:18.191Z,15.76
2022-09-20T13:12:15.468Z,15.79
2022-09-20T13:14:47.300Z,15.80
2022-09-20T13:17:31.978Z,15.82
2022-09-20T13:20:22.663Z,15.82
2022-09-20T13:22:51.582Z,15.79
2022-09-20T13:25:48.318Z,15.79
2022-09-20T13:28:50.491Z,15.79
2022-09-20T13:31:32.860Z,15.80
2022-09-20T13:34:48.452Z,15.79
2022-09-20T13:37:50.648Z,15.79
2022-09-20T13:40:48.724Z,15.79
2022-09-20T13:43:50.889Z,15.78
2022-09-20T13:46:46.389Z,15.68
2022-09-20T13:49:45.012Z,15.64
2022-09-20T13:52:51.655Z,15.66
2022-09-20T13:55:52.117Z,15.69
2022-09-20T13:58:45.339Z,15.72
2022-09-20T14:08:08.602Z,15.75
2022-09-20T14:11:44.187Z,15.77
2022-09-20T14:17:44.029Z,15.82
2022-09-20T14:24:12.829Z,15.87
2022-09-20T14:27:39.516Z,15.88
2022-09-20T14:30:41.646Z,15.82
2022-09-20T14:33:39.478Z,15.74
2022-09-20T14:36:41.039Z,15.76
2022-09-20T14:42:38.897Z,15.87
2022-09-20T14:45:46.676Z,15.89
2022-09-20T14:48:33.225Z,15.92
2022-09-20T14:55:15.218Z,15.88
2022-09-20T14:58:08.458Z,15.91
2022-09-20T15:05:13.538Z,16.08
2022-09-20T15:11:37.150Z,16.33
2022-09-20T15:14:11.330Z,16.48
2022-09-20T15:22:45.445Z,16.97
2022-09-20T15:25:37.587Z,17.16
2022-09-20T15:28:08.638Z,17.30
2022-09-20T15:30:37.614Z,17.47
2022-09-20T15:33:08.707Z,17.66
2022-09-20T15:35:37.182Z,17.85
2022-09-20T15:38:12.383Z,18.04
2022-09-20T15:43:28.942Z,18.42
2022-09-20T15:46:35.413Z,18.61
2022-09-20T15:49:15.384Z,18.80
2022-09-20T15:52:05.005Z,18.97
2022-09-20T15:54:33.400Z,19.17
2022-09-20T15:57:07.587Z,19.33
2022-09-20T15:59:35.933Z,19.41
2022-09-20T16:02:33.229Z,19.49
2022-09-20T16:05:34.391Z,19.55
2022-09-20T16:08:35.673Z,19.69
2022-09-20T16:16:40.648Z,20.14
2022-09-20T16:20:07.563Z,20.24
2022-09-20T16:22:35.939Z,20.43
2022-09-20T16:28:31.929Z,20.79
2022-09-20T16:31:03.194Z,20.92
2022-09-20T16:33:37.431Z,21.05
2022-09-20T16:36:37.439Z,21.15
2022-09-20T16:42:17.150Z,21.46
2022-09-20T16:44:45.550Z,21.58
2022-09-20T16:48:06.430Z,21.58
2022-09-20T16:50:39.172Z,21.51
2022-09-20T16:53:09.794Z,21.42
2022-09-20T16:55:38.074Z,21.28
2022-09-20T17:01:41.490Z,20.93
2022-09-20T17:04:14.671Z,20.75
2022-09-20T17:07:33.910Z,20.65
2022-09-20T17:10:03.129Z,20.51
2022-09-20T17:20:03.772Z,20.48
2022-09-20T17:22:42.668Z,20.47
2022-09-20T17:26:24.668Z,20.52
2022-09-20T17:32:03.581Z,20.74
2022-09-20T17:38:25.630Z,21.44
2022-09-20T17:50:02.206Z,22.07
2022-09-20T17:55:29.326Z,22.66
2022-09-20T17:57:57.984Z,22.81
2022-09-20T18:00:59.132Z,22.78
2022-09-20T18:06:38.561Z,22.82
2022-09-20T18:06:59.952Z,23.01
2022-09-20T18:20:05.797Z,23.51
2022-09-20T18:23:03.787Z,23.77
2022-09-20T18:32:21.908Z,24.02
2022-09-20T18:35:00.864Z,23.82
2022-09-20T18:37:56.687Z,23.70
2022-09-20T18:40:59.219Z,23.52
2022-09-20T18:44:03.509Z,23.44
2022-09-20T18:49:26.541Z,23.28
2022-09-20T18:52:05.341Z,23.13
2022-09-20T18:58:00.678Z,22.95
2022-09-20T19:00:30.300Z,23.03
2022-09-20T19:07:27.599Z,23.07
2022-09-20T19:14:26.384Z,22.88
2022-09-20T19:17:30.567Z,22.89
2022-09-20T19:20:26.090Z,22.94
2022-09-20T19:26:25.172Z,23.04
2022-09-20T19:29:24.403Z,22.90
2022-09-20T19:36:30.350Z,22.81
2022-09-20T19:43:29.175Z,22.73
2022-09-20T19:49:22.013Z,22.46
2022-09-20T19:52:23.584Z,22.41
2022-09-20T20:02:29.312Z,22.55
2022-09-20T20:05:28.382Z,22.74
2022-09-20T20:08:30.942Z,22.91
2022-09-20T20:11:51.754Z,22.98
2022-09-20T20:14:29.266Z,23.04
2022-09-20T20:17:50.411Z,23.06
2022-09-20T20:21:22.608Z,22.94
2022-09-20T20:24:51.741Z,22.94
2022-09-20T20:27:30.053Z,22.89
2022-09-20T20:31:24.789Z,23.04
2022-09-20T20:49:26.617Z,23.84
2022-09-20T21:13:28.816Z,23.37
2022-09-20T21:19:55.076Z,22.84
2022-09-20T21:23:28.257Z,22.62
2022-09-20T21:25:25.403Z,22.39
2022-09-20T21:28:25.464Z,22.35
2022-09-20T21:31:27.142Z,22.40
2022-09-20T21:34:25.793Z,22.45
2022-09-20T21:37:30.051Z,22.43
2022-09-20T21:40:28.698Z,22.49
2022-09-20T21:43:07.906Z,22.50
2022-09-20T21:52:29.900Z,22.51
2022-09-20T21:55:18.602Z,22.51
2022-09-20T22:07:25.330Z,22.65
2022-09-20T22:23:20.162Z,22.60
2022-09-20T22:36:58.341Z,22.24
2022-09-20T22:53:57.759Z,21.81
2022-09-20T22:56:44.476Z,21.72
2022-09-20T23:02:54.529Z,21.61
2022-09-20T23:06:23.849Z,21.59
2022-09-20T23:11:54.219Z,21.55
2022-09-20T23:14:54.425Z,21.54
2022-09-20T23:18:24.876Z,21.52
2022-09-20T23:24:17.728Z,21.50
2022-09-20T23:27:24.123Z,21.46
2022-09-20T23:34:23.645Z,21.45
2022-09-20T23:36:52.110Z,21.44
2022-09-20T23:39:44.252Z,21.44
2022-09-20T23:42:18.996Z,21.42
2022-09-20T23:48:24.433Z,21.45
2022-09-20T23:54:18.569Z,21.46
2022-09-20T23:56:47.224Z,21.42
2022-09-20T23:59:21.586Z,21.44
